Logan Mills, Pennsylvania
Current Conditions -  °F | °C
As of 6:54 AM on Friday 24 Oct 2014 (Local Time) from KIPT Reporting Station
Few Clouds Few Clouds  
Wind Chill: 54°   Ceiling: Unl
Heat Index: 54°   Visibility: 10mi
Dew Point: 41°   Wind: 10mph
Humidity: 62%   Direction: 270°W
Pressure: 29.93"   Gusts: NA
Location:  41.029°N, 77.3175°W
Report Text: KIPT 241054Z 27009KT 10SM FEW043 12/05 A2993 RMK AO2 SLP136 T01220050
Loading
Personal Weather Stations






























Interactive Weather Map
Tropical Storm Tracking
New forecast layout! Learn more

10-Day Weather Forecast

Advertisements
Track Severe Weather on mobile